Main page
METAR-TAF:

METAR-TAF

Airports :

Athens, Greece

Athens International Airport

latitude: 37-56N, longitude: 023-56E, elevation: 94 m

Current weather observation

The report was made 45 minutes ago, at 21:50 UTC
Wind 4 kt from the West/Southwest
Temperature 15°C
Humidity 55%
Pressure 1017 hPa
Visibility 10 km or more
Few clouds at a height of 2500 ft

METAR: LGAV 272150Z 24004KT 9999 FEW025 15/06 Q1017 NOSIG

Time: 01:35 (22:35 UTC)

Forecast

The report was made 5 hours and 35 minutes ago, at 17:00 UTC
Forecast valid from 27 at 18 UTC to 28 at 18 UTC
Wind 3 kt from variable directions
Visibility 10 km or more
Few clouds at a height of 2000 ft
Becoming
from 28 at 08 UTC to 28 at 10 UTC
Wind 10 kt from the Southwest

TAF: LGAV 271700Z 2718/2818 VRB03KT 9999 FEW020 BECMG 2808/2810 23010KT

Weather observations and forecasts of more than 4000 airports (METAR and TAF reports).

The available stations are represented by yellow and red dots on the map.

Hover mouse over dot to see the name of the station.

Then click to see weather observations and forecasts.

To change the map : click on the green buttons with a black cross to zoom in, on the green button with a dash to zoom out, or on the green arrows for adjacent maps.


METAR-TAF: